EST,Max TemperatureF,Mean TemperatureF,Min TemperatureF,Max Dew PointF,MeanDew PointF,Min DewpointF,Max Humidity, Mean Humidity, Min Humidity, Max Sea Level PressureIn, Mean Sea Level PressureIn, Min Sea Level PressureIn, Max VisibilityMiles, Mean VisibilityMiles, Min VisibilityMiles, Max Wind SpeedMPH, Mean Wind SpeedMPH, Max Gust SpeedMPH,PrecipitationIn, CloudCover, Events, WindDirDegrees
2011-11-1,80,71,61,61,59,55,90,71,54,30.15,30.10,30.06,10,10,10,18,11,25,0.00,1,,46
2011-11-2,82,72,61,59,56,55,84,64,43,30.18,30.13,30.09,10,10,10,17,9,28,0.00,0,,58
2011-11-3,81,72,62,64,61,57,90,74,45,30.13,30.06,29.98,10,10,10,14,6,23,0.00,1,,3
2011-11-4,74,66,58,66,57,51,93,75,57,30.00,29.94,29.88,10,9,2,51,10,128,0.02,4,Rain,329
2011-11-5,77,67,56,57,53,48,78,66,49,30.11,30.02,29.97,10,10,10,17,9,32,0.00,2,,30
2011-11-6,82,71,59,63,59,55,90,73,49,30.16,30.11,30.08,10,10,10,22,10,28,0.00,3,,40
2011-11-7,82,73,63,64,61,59,93,76,51,30.18,30.12,30.06,10,10,8,21,10,26,0.00,4,,55
2011-11-8,83,73,62,63,60,56,93,71,42,30.10,30.05,30.01,10,10,10,15,7,22,0.00,1,,46
2011-11-9,82,73,64,63,58,53,93,67,39,30.06,29.99,29.93,10,10,10,15,8,23,0.00,0,,13
2011-11-10,77,67,56,63,58,55,93,77,53,29.99,29.94,29.89,10,8,0,20,7,25,0.00,2,Fog,326
2011-11-11,68,59,50,55,35,28,73,42,24,30.22,30.12,29.98,10,10,10,22,11,32,0.00,0,,23
2011-11-12,79,64,49,53,48,40,80,59,35,30.25,30.21,30.17,10,10,10,17,9,79,0.00,0,,66
2011-11-13,81,67,53,60,56,51,93,70,42,30.22,30.16,30.11,10,10,10,18,6,26,0.00,0,,79
2011-11-14,87,73,59,68,63,57,93,76,48,30.14,30.09,30.02,10,10,10,17,6,22,0.00,0,,84
2011-11-15,81,75,68,73,70,66,97,90,74,30.06,30.03,29.99,10,7,0,12,5,23,0.00,5,Fog,125
2011-11-16,84,79,74,73,72,71,93,86,69,30.06,30.01,29.96,10,10,2,20,10,25,0.00,4,,174
2011-11-17,83,75,67,73,70,59,100,88,58,30.10,30.02,29.98,10,6,0,17,8,29,0.01,5,Fog-Rain,217
2011-11-18,81,70,59,62,57,50,73,64,54,30.18,30.14,30.10,10,10,10,26,15,35,T,4,,64
2011-11-19,87,77,67,67,64,59,84,69,48,30.21,30.17,30.13,10,10,10,21,11,24,T,4,,84
2011-11-20,87,77,66,68,66,64,93,74,48,30.23,30.19,30.14,10,10,10,17,10,31,0.00,1,,76
2011-11-21,86,77,68,71,68,64,93,80,51,30.22,30.15,30.09,10,10,4,14,8,32,0.31,4,Rain,86
2011-11-22,82,74,66,72,69,65,100,85,67,30.17,30.12,30.08,10,10,4,22,5,124,0.11,4,Rain,142
2011-11-23,80,72,64,72,67,63,100,88,74,30.11,30.06,29.97,10,10,3,21,7,26,0.14,3,Rain,219
2011-11-24,80,71,61,65,57,54,84,65,42,30.22,30.13,30.05,10,10,10,17,10,23,0.00,0,,54
2011-11-25,81,70,58,56,54,51,86,61,36,30.24,30.18,30.12,10,10,10,31,9,83,0.00,2,,70
2011-11-26,84,71,58,61,57,53,93,67,39,30.20,30.14,30.09,10,10,10,24,10,37,0.00,1,,88
2011-11-27,84,73,61,64,58,54,81,65,37,30.10,30.02,29.95,10,10,10,22,11,38,0.00,1,,118
2011-11-28,76,70,63,70,64,53,93,89,74,29.96,29.91,29.88,10,7,1,20,10,25,0.47,7,Rain,291
2011-11-29,72,67,62,55,52,49,73,58,44,30.02,29.98,29.92,10,10,10,20,11,25,0.00,3,,297
2011-11-30,65,61,57,56,50,47,78,69,60,30.10,30.04,29.98,10,10,10,18,10,23,0.00,4,,349